createdAt,value
2019-01-03T00:02:45.020Z,84.77
2019-01-03T00:05:53.100Z,84.80
2019-01-03T00:08:41.067Z,84.77
2019-01-03T00:11:48.710Z,85.01
2019-01-03T00:14:54.926Z,84.97
2019-01-03T00:18:02.419Z,84.32
2019-01-03T00:20:59.935Z,84.97
2019-01-03T00:24:09.200Z,85.90
2019-01-03T00:27:10.100Z,85.88
2019-01-03T00:30:19.551Z,85.79
2019-01-03T00:33:20.263Z,85.94
2019-01-03T00:36:27.760Z,85.59
2019-01-03T00:39:30.393Z,84.76
2019-01-03T00:42:37.824Z,85.20
2019-01-03T00:45:42.877Z,86.14
2019-01-03T00:48:52.166Z,86.68
2019-01-03T00:51:50.032Z,86.40
2019-01-03T00:54:57.423Z,86.90
2019-01-03T00:57:57.754Z,86.81
2019-01-03T01:01:05.699Z,87.30
2019-01-03T01:04:08.547Z,87.79
2019-01-03T01:07:15.994Z,87.90
2019-01-03T01:10:23.357Z,86.58
2019-01-03T01:13:30.772Z,86.25
2019-01-03T01:16:26.412Z,86.87
2019-01-03T01:19:33.830Z,87.48
2019-01-03T01:22:34.744Z,87.99
2019-01-03T01:25:27.141Z,87.57
2019-01-03T01:28:28.920Z,87.52
2019-01-03T01:31:29.036Z,88.17
2019-01-03T01:34:31.993Z,88.11
2019-01-03T01:37:39.345Z,88.09
2019-01-03T01:40:32.192Z,87.96
2019-01-03T01:43:39.844Z,88.48
2019-01-03T01:46:36.239Z,88.78
2019-01-03T01:49:43.797Z,88.39
2019-01-03T01:52:40.736Z,88.40
2019-01-03T01:55:28.620Z,88.30
2019-01-03T01:58:28.909Z,88.53
2019-01-03T02:01:36.407Z,87.89
2019-01-03T02:04:36.475Z,87.41
2019-01-03T02:07:39.331Z,87.75
2019-01-03T02:10:39.376Z,88.57
2019-01-03T02:13:46.886Z,88.21
2019-01-03T02:16:47.643Z,88.57
2019-01-03T02:19:55.038Z,87.64
2019-01-03T02:22:58.504Z,88.55
2019-01-03T02:26:04.969Z,87.36
2019-01-03T02:29:07.138Z,88.31
2019-01-03T02:32:15.051Z,87.76
2019-01-03T02:35:15.364Z,88.45
2019-01-03T02:38:24.638Z,88.93
2019-01-03T02:41:24.832Z,89.48
2019-01-03T02:44:32.354Z,89.67
2019-01-03T02:47:32.975Z,90.00
2019-01-03T02:50:32.701Z,90.04
2019-01-03T02:53:34.413Z,89.69
2019-01-03T02:56:41.751Z,90.03
2019-01-03T02:59:42.637Z,90.66
2019-01-03T03:02:50.207Z,90.65
2019-01-03T03:05:54.178Z,90.76
2019-01-03T03:08:51.732Z,90.66
2019-01-03T03:11:54.385Z,91.56
2019-01-03T03:15:01.831Z,90.31
2019-01-03T03:18:01.885Z,89.94
2019-01-03T03:21:09.365Z,89.23
2019-01-03T03:24:13.159Z,88.92
2019-01-03T03:27:15.391Z,89.62
2019-01-03T03:30:16.403Z,90.53
2019-01-03T03:33:16.696Z,91.45
2019-01-03T03:36:24.168Z,92.22
2019-01-03T03:39:25.209Z,92.62
2019-01-03T03:42:13.680Z,93.26
2019-01-03T03:45:14.144Z,93.79
2019-01-03T03:48:21.592Z,93.89
2019-01-03T03:51:22.646Z,94.07
2019-01-03T03:54:22.774Z,94.36
2019-01-03T03:57:30.368Z,94.43
2019-01-03T04:00:30.957Z,95.33
2019-01-03T04:03:38.690Z,95.69
2019-01-03T04:06:39.293Z,96.12
2019-01-03T04:09:36.503Z,96.16
2019-01-03T04:12:36.603Z,96.74
2019-01-03T04:15:44.246Z,97.13
2019-01-03T04:18:44.860Z,97.51
2019-01-03T04:21:52.650Z,97.60
2019-01-03T04:24:53.106Z,98.34
2019-01-03T04:27:53.279Z,98.17
2019-01-03T04:30:54.172Z,99.15
2019-01-03T04:33:54.566Z,99.84
2019-01-03T04:37:02.105Z,99.90
2019-01-03T04:39:57.062Z,100.00
2019-01-03T04:43:06.233Z,100.00
2019-01-03T04:46:06.792Z,100.00
2019-01-03T04:49:14.979Z,100.00
2019-01-03T04:52:21.105Z,100.00
2019-01-03T04:55:28.646Z,100.00
2019-01-03T04:58:29.040Z,100.00
2019-01-03T05:01:51.710Z,100.00
2019-01-03T05:04:59.253Z,100.00
2019-01-03T05:08:02.231Z,100.00
2019-01-03T05:11:09.601Z,100.00
2019-01-03T05:14:09.511Z,100.00
2019-01-03T05:17:16.974Z,100.00
2019-01-03T05:20:13.749Z,100.00
2019-01-03T05:23:21.125Z,100.00
2019-01-03T05:26:24.669Z,100.00
2019-01-03T05:29:32.257Z,100.00
2019-01-03T05:32:32.182Z,100.00
2019-01-03T05:35:39.646Z,100.00
2019-01-03T05:38:51.160Z,100.00
2019-01-03T05:41:51.732Z,100.00
2019-01-03T05:45:00.961Z,100.00
2019-01-03T05:48:01.553Z,100.00
2019-01-03T05:51:09.044Z,100.00
2019-01-03T05:54:09.855Z,100.00
2019-01-03T05:57:17.436Z,100.00
2019-01-03T06:00:18.025Z,100.00
2019-01-03T06:03:25.372Z,100.00
2019-01-03T06:06:26.246Z,100.00
2019-01-03T06:09:32.029Z,100.00
2019-01-03T06:12:39.519Z,100.00
2019-01-03T06:15:39.567Z,100.00
2019-01-03T06:18:48.814Z,100.00
2019-01-03T06:21:48.952Z,100.00
2019-01-03T06:24:58.088Z,100.00
2019-01-03T06:27:57.781Z,100.00
2019-01-03T06:31:05.328Z,100.00
2019-01-03T06:34:11.512Z,100.00
2019-01-03T06:37:18.969Z,100.00
2019-01-03T06:40:19.741Z,100.00
2019-01-03T06:43:22.560Z,100.00
2019-01-03T06:46:20.992Z,100.00
2019-01-03T06:49:28.420Z,100.00
2019-01-03T06:52:28.384Z,100.00
2019-01-03T06:55:24.474Z,100.00
2019-01-03T06:58:27.593Z,100.00
2019-01-03T07:01:36.781Z,100.00
2019-01-03T07:04:36.888Z,100.00
2019-01-03T07:07:44.388Z,100.00
2019-01-03T07:10:45.199Z,100.00
2019-01-03T07:13:52.706Z,100.00
2019-01-03T07:20:01.951Z,100.00
2019-01-03T07:23:02.424Z,100.00
2019-01-03T07:26:09.959Z,100.00
2019-01-03T07:29:10.872Z,100.00
2019-01-03T07:32:18.377Z,100.00
2019-01-03T07:35:11.490Z,100.00
2019-01-03T07:37:59.683Z,100.00
2019-01-03T07:41:00.502Z,100.00
2019-01-03T07:43:48.528Z,100.00
2019-01-03T07:46:54.457Z,100.00
2019-01-03T07:50:02.114Z,100.00
2019-01-03T07:53:02.212Z,100.00
2019-01-03T07:56:09.566Z,100.00
2019-01-03T07:59:09.712Z,100.00
2019-01-03T08:02:17.306Z,100.00
2019-01-03T08:05:18.397Z,100.00
2019-01-03T08:08:25.950Z,100.00
2019-01-03T08:11:26.502Z,100.00
2019-01-03T08:14:34.031Z,100.00
2019-01-03T08:17:37.647Z,100.00
2019-01-03T08:20:45.110Z,100.00
2019-01-03T08:23:48.837Z,100.00
2019-01-03T08:26:56.290Z,100.00
2019-01-03T08:29:56.447Z,100.00
2019-01-03T08:33:04.345Z,100.00
2019-01-03T08:36:04.762Z,100.00
2019-01-03T08:39:12.194Z,100.00
2019-01-03T08:42:13.079Z,100.00
2019-01-03T08:45:20.527Z,100.00
2019-01-03T08:48:21.694Z,100.00
2019-01-03T08:51:29.073Z,100.00
2019-01-03T08:54:29.332Z,100.00
2019-01-03T08:57:36.796Z,100.00
2019-01-03T09:00:39.580Z,100.00
2019-01-03T09:03:46.629Z,100.00
2019-01-03T09:06:47.172Z,100.00
2019-01-03T09:09:54.683Z,100.00
2019-01-03T09:12:55.515Z,100.00
2019-01-03T09:16:03.255Z,100.00
2019-01-03T09:19:03.897Z,100.00
2019-01-03T09:22:11.395Z,100.00
2019-01-03T09:25:11.419Z,100.00
2019-01-03T09:28:11.529Z,100.00
2019-01-03T09:31:13.929Z,100.00
2019-01-03T09:34:21.464Z,100.00
2019-01-03T09:37:11.048Z,100.00
2019-01-03T09:40:20.126Z,100.00
2019-01-03T09:43:25.918Z,100.00
2019-01-03T09:46:13.770Z,100.00
2019-01-03T09:48:56.318Z,100.00
2019-01-03T09:51:44.278Z,100.00
2019-01-03T09:54:35.592Z,100.00
2019-01-03T09:57:16.657Z,100.00
2019-01-03T09:59:58.909Z,100.00
2019-01-03T10:02:46.780Z,100.00
2019-01-03T10:05:36.611Z,100.00
2019-01-03T10:08:19.653Z,99.86
2019-01-03T10:11:07.346Z,100.00
2019-01-03T10:13:48.618Z,99.47
2019-01-03T10:16:36.772Z,99.30
2019-01-03T10:19:18.201Z,100.00
2019-01-03T10:22:06.555Z,98.94
2019-01-03T10:24:47.223Z,98.42
2019-01-03T10:27:28.012Z,98.29
2019-01-03T10:30:16.003Z,99.20
2019-01-03T10:32:57.176Z,99.56
2019-01-03T10:35:45.222Z,98.90
2019-01-03T10:38:13.779Z,98.83
2019-01-03T10:41:01.941Z,99.67
2019-01-03T10:43:43.143Z,99.51
2019-01-03T10:46:31.375Z,100.00
2019-01-03T10:49:11.986Z,100.00
2019-01-03T10:52:00.084Z,100.00
2019-01-03T10:54:41.023Z,100.00
2019-01-03T10:57:29.057Z,99.53
2019-01-03T11:00:10.556Z,99.30
2019-01-03T11:02:58.587Z,99.51
2019-01-03T11:05:39.597Z,98.72
2019-01-03T11:08:27.532Z,98.95
2019-01-03T11:11:10.602Z,98.24
2019-01-03T11:13:39.223Z,98.26
2019-01-03T11:16:19.895Z,97.99
2019-01-03T11:19:07.737Z,97.47
2019-01-03T11:21:49.062Z,97.49
2019-01-03T11:24:37.042Z,96.38
2019-01-03T11:27:18.196Z,96.52
2019-01-03T11:30:19.392Z,95.72
2019-01-03T11:33:07.294Z,94.91
2019-01-03T11:35:48.422Z,94.61
2019-01-03T11:38:36.296Z,93.68
2019-01-03T11:41:04.909Z,89.39
2019-01-03T11:43:52.949Z,85.85
2019-01-03T11:46:33.498Z,84.02
2019-01-03T11:49:21.499Z,82.71
2019-01-03T11:52:02.707Z,79.83
2019-01-03T11:54:50.480Z,78.93
2019-01-03T11:57:32.269Z,75.83
2019-01-03T12:00:20.119Z,74.98
2019-01-03T12:03:02.320Z,73.54
2019-01-03T12:05:50.567Z,74.87
2019-01-03T12:08:31.634Z,75.55
2019-01-03T12:11:19.696Z,75.32
2019-01-03T12:14:00.488Z,73.88
2019-01-03T12:16:48.970Z,73.90
2019-01-03T12:19:31.664Z,73.56
2019-01-03T12:22:19.863Z,72.29
2019-01-03T12:25:00.533Z,71.86
2019-01-03T12:27:41.696Z,72.42
2019-01-03T12:30:30.278Z,71.73
2019-01-03T12:33:10.628Z,71.28
2019-01-03T12:35:58.493Z,70.64
2019-01-03T12:38:39.853Z,70.09
2019-01-03T12:41:27.859Z,70.47
2019-01-03T12:44:08.954Z,69.78
2019-01-03T12:46:57.270Z,70.14
2019-01-03T12:49:39.892Z,69.85
2019-01-03T12:52:27.925Z,70.73
2019-01-03T12:55:08.924Z,70.39
2019-01-03T12:57:57.081Z,70.04
2019-01-03T13:00:37.745Z,69.53
2019-01-03T13:03:25.832Z,69.80
2019-01-03T13:06:06.891Z,69.91
2019-01-03T13:08:54.868Z,70.06
2019-01-03T13:11:35.593Z,70.20
2019-01-03T13:14:23.605Z,70.75
2019-01-03T13:17:04.480Z,70.02
2019-01-03T13:19:52.458Z,70.40
2019-01-03T13:22:33.525Z,70.30
2019-01-03T13:25:21.443Z,70.86
2019-01-03T13:28:02.725Z,71.32
2019-01-03T13:30:50.713Z,71.29
2019-01-03T13:33:33.879Z,71.33
2019-01-03T13:36:25.129Z,71.39
2019-01-03T13:39:06.899Z,72.25
2019-01-03T13:41:55.407Z,71.75
2019-01-03T13:44:36.123Z,71.60
2019-01-03T13:47:25.517Z,71.40
2019-01-03T13:50:07.249Z,71.31
2019-01-03T13:52:55.339Z,71.20
2019-01-03T13:55:24.501Z,71.71
2019-01-03T13:58:12.666Z,71.73
2019-01-03T14:00:53.351Z,71.68
2019-01-03T14:03:41.677Z,72.04
2019-01-03T14:06:23.243Z,72.63
2019-01-03T14:09:11.717Z,72.25
2019-01-03T14:11:41.484Z,72.13
2019-01-03T14:14:29.527Z,72.41
2019-01-03T14:17:10.616Z,72.78
2019-01-03T14:19:40.582Z,74.58
2019-01-03T14:22:24.210Z,74.36
2019-01-03T14:25:12.645Z,73.37
2019-01-03T14:27:53.812Z,75.27
2019-01-03T14:30:42.763Z,75.31
2019-01-03T14:33:23.985Z,74.67
2019-01-03T14:35:52.761Z,75.19
2019-01-03T14:38:34.108Z,75.94
2019-01-03T14:41:22.671Z,75.41
2019-01-03T14:44:04.284Z,74.85
2019-01-03T14:46:52.264Z,75.30
2019-01-03T14:49:33.722Z,75.62
2019-01-03T14:52:21.720Z,76.03
2019-01-03T14:55:03.407Z,75.86
2019-01-03T14:57:51.294Z,77.98
2019-01-03T15:00:32.637Z,78.24
2019-01-03T15:03:01.372Z,77.98
2019-01-03T15:05:42.547Z,77.37
2019-01-03T15:08:30.528Z,78.03
2019-01-03T15:11:13.050Z,78.87
2019-01-03T15:13:41.655Z,78.62
2019-01-03T15:16:22.206Z,78.56
2019-01-03T15:19:10.057Z,78.19
2019-01-03T15:21:51.402Z,78.05
2019-01-03T15:24:39.424Z,78.20
2019-01-03T15:27:22.755Z,78.17
2019-01-03T15:30:11.437Z,78.68
2019-01-03T15:32:53.195Z,77.71
2019-01-03T15:35:41.263Z,77.72
2019-01-03T15:38:24.014Z,77.58
2019-01-03T15:41:11.933Z,77.66
2019-01-03T15:43:53.049Z,78.09
2019-01-03T15:46:41.034Z,78.43
2019-01-03T15:49:21.693Z,78.87
2019-01-03T15:52:10.182Z,78.72
2019-01-03T15:54:50.988Z,79.12
2019-01-03T15:57:38.962Z,78.66
2019-01-03T16:00:20.172Z,79.14
2019-01-03T16:03:09.391Z,78.69
2019-01-03T16:05:50.367Z,78.60
2019-01-03T16:08:38.258Z,78.69
2019-01-03T16:11:19.368Z,78.85
2019-01-03T16:14:07.470Z,78.79
2019-01-03T16:16:48.721Z,79.25
2019-01-03T16:19:36.717Z,78.40
2019-01-03T16:22:17.862Z,79.00
2019-01-03T16:25:06.226Z,78.40
2019-01-03T16:27:47.033Z,78.93
2019-01-03T16:30:35.349Z,79.58
2019-01-03T16:33:15.899Z,79.26
2019-01-03T16:36:03.841Z,78.89
2019-01-03T16:38:45.014Z,79.73
2019-01-03T16:41:34.760Z,81.30
2019-01-03T16:44:16.665Z,81.58
2019-01-03T16:46:59.175Z,81.14
2019-01-03T16:49:50.019Z,81.70
2019-01-03T16:52:33.463Z,81.26
2019-01-03T16:55:14.573Z,81.70
2019-01-03T16:57:55.435Z,83.04
2019-01-03T17:00:43.510Z,83.39
2019-01-03T17:03:24.834Z,83.75
2019-01-03T17:06:12.710Z,83.92
2019-01-03T17:08:53.802Z,84.56
2019-01-03T17:11:41.568Z,85.54
2019-01-03T17:14:22.851Z,85.14
2019-01-03T17:17:11.000Z,85.79
2019-01-03T17:19:51.927Z,86.12
2019-01-03T17:22:39.872Z,86.78
2019-01-03T17:25:20.825Z,86.24
2019-01-03T17:28:02.918Z,86.64
2019-01-03T17:30:51.708Z,87.67
2019-01-03T17:33:34.433Z,88.14
2019-01-03T17:36:23.470Z,88.43
2019-01-03T17:39:07.284Z,88.06
2019-01-03T17:41:56.132Z,88.67
2019-01-03T17:44:39.325Z,89.31
2019-01-03T17:47:28.408Z,89.79
2019-01-03T17:50:09.610Z,89.73
2019-01-03T17:52:58.377Z,89.71
2019-01-03T17:55:28.314Z,89.97
2019-01-03T17:58:16.222Z,90.42
2019-01-03T18:00:56.847Z,90.77
2019-01-03T18:03:44.849Z,90.89
2019-01-03T18:06:13.564Z,91.15
2019-01-03T18:09:01.687Z,91.30
2019-01-03T18:11:43.223Z,91.34
2019-01-03T18:14:11.867Z,91.04
2019-01-03T18:16:52.888Z,90.64
2019-01-03T18:19:40.839Z,89.66
2019-01-03T18:22:21.849Z,90.69
2019-01-03T18:25:10.632Z,91.61
2019-01-03T18:27:51.874Z,92.22
2019-01-03T18:30:40.180Z,92.46
2019-01-03T18:33:20.687Z,91.54
2019-01-03T18:36:08.972Z,91.06
2019-01-03T18:38:49.945Z,90.41
2019-01-03T18:41:38.017Z,90.55
2019-01-03T18:44:19.238Z,90.69
2019-01-03T18:47:07.150Z,91.20
2019-01-03T18:49:47.968Z,90.96
2019-01-03T18:52:16.878Z,91.43
2019-01-03T18:54:57.847Z,93.03
2019-01-03T18:57:45.959Z,93.34
2019-01-03T19:00:27.069Z,93.41
2019-01-03T19:03:15.083Z,93.98
2019-01-03T19:05:56.169Z,94.35
2019-01-03T19:08:44.620Z,94.89
2019-01-03T19:11:13.231Z,95.25
2019-01-03T19:14:01.293Z,94.92
2019-01-03T19:16:29.855Z,94.99
2019-01-03T19:19:17.716Z,95.24
2019-01-03T19:21:58.971Z,95.26
2019-01-03T19:24:46.903Z,95.74
2019-01-03T19:27:30.117Z,96.03
2019-01-03T19:30:11.264Z,96.18
2019-01-03T19:32:52.466Z,96.02
2019-01-03T19:35:40.500Z,96.10
2019-01-03T19:38:21.611Z,95.63
2019-01-03T19:41:09.956Z,95.43
2019-01-03T19:43:51.175Z,95.14
2019-01-03T19:46:40.593Z,94.69
2019-01-03T19:49:20.594Z,95.31
2019-01-03T19:52:09.031Z,95.33
2019-01-03T19:54:49.628Z,95.33
2019-01-03T19:57:37.607Z,95.49
2019-01-03T20:00:18.502Z,95.47
2019-01-03T20:02:48.731Z,95.60
2019-01-03T20:05:29.673Z,96.15
2019-01-03T20:08:17.808Z,96.35
2019-01-03T20:10:58.785Z,95.69
2019-01-03T20:13:47.100Z,94.93
2019-01-03T20:16:27.732Z,95.39
2019-01-03T20:19:16.029Z,96.07
2019-01-03T20:21:59.888Z,96.19
2019-01-03T20:24:48.178Z,96.45
2019-01-03T20:27:29.560Z,95.70
2019-01-03T20:30:10.566Z,96.22
2019-01-03T20:32:51.378Z,96.39
2019-01-03T20:35:32.571Z,96.57
2019-01-03T20:38:01.231Z,96.48
2019-01-03T20:40:49.229Z,96.70
2019-01-03T20:43:30.083Z,96.55
2019-01-03T20:46:18.053Z,96.77
2019-01-03T20:48:59.478Z,96.41
2019-01-03T20:51:48.045Z,97.16
2019-01-03T20:54:29.333Z,97.28
2019-01-03T20:57:17.191Z,97.62
2019-01-03T20:59:58.645Z,97.99
2019-01-03T21:02:47.761Z,98.18
2019-01-03T21:05:28.952Z,97.53
2019-01-03T21:08:16.812Z,96.74
2019-01-03T21:10:59.397Z,96.70
2019-01-03T21:13:47.490Z,96.69
2019-01-03T21:16:29.280Z,97.12
2019-01-03T21:19:18.325Z,97.30
2019-01-03T21:21:59.185Z,97.60
2019-01-03T21:24:29.208Z,97.38
2019-01-03T21:27:10.792Z,97.59
2019-01-03T21:29:51.833Z,97.62
2019-01-03T21:32:32.906Z,97.86
2019-01-03T21:35:21.524Z,97.89
2019-01-03T21:37:50.490Z,97.46
2019-01-03T21:40:38.338Z,97.41
2019-01-03T21:43:18.997Z,97.47
2019-01-03T21:46:07.074Z,97.16
2019-01-03T21:48:53.084Z,97.32
2019-01-03T21:51:38.182Z,97.16
2019-01-03T21:54:06.747Z,96.89
2019-01-03T21:56:54.734Z,97.30
2019-01-03T21:59:36.053Z,97.08
2019-01-03T22:02:24.038Z,97.20
2019-01-03T22:05:05.168Z,97.93
2019-01-03T22:07:53.119Z,98.25
2019-01-03T22:10:34.761Z,98.45
2019-01-03T22:13:22.948Z,98.20
2019-01-03T22:16:04.528Z,98.36
2019-01-03T22:18:53.099Z,97.59
2019-01-03T22:21:34.305Z,97.56
2019-01-03T22:24:22.071Z,97.99
2019-01-03T22:27:02.852Z,98.33
2019-01-03T22:29:43.886Z,98.71
2019-01-03T22:32:24.756Z,98.76
2019-01-03T22:35:12.915Z,98.65
2019-01-03T22:37:55.650Z,98.79
2019-01-03T22:40:43.642Z,98.77
2019-01-03T22:43:24.635Z,98.31
2019-01-03T22:46:12.550Z,97.46
2019-01-03T22:48:51.558Z,97.65
2019-01-03T22:51:39.532Z,97.95
2019-01-03T22:54:20.763Z,98.13
2019-01-03T22:57:08.727Z,97.87
2019-01-03T22:59:49.897Z,98.40
2019-01-03T23:02:37.864Z,98.15
2019-01-03T23:05:19.500Z,97.90
2019-01-03T23:08:07.697Z,97.93
2019-01-03T23:10:50.202Z,98.68
2019-01-03T23:13:38.239Z,98.60
2019-01-03T23:16:21.156Z,99.35
2019-01-03T23:19:09.003Z,99.84
2019-01-03T23:21:50.289Z,99.36
2019-01-03T23:24:38.355Z,99.27
2019-01-03T23:27:19.556Z,99.69
2019-01-03T23:30:00.692Z,99.65
2019-01-03T23:32:41.694Z,98.93
2019-01-03T23:35:29.617Z,98.92
2019-01-03T23:38:10.800Z,99.08
2019-01-03T23:40:58.695Z,98.78
2019-01-03T23:43:40.202Z,99.23
2019-01-03T23:46:28.595Z,99.51
2019-01-03T23:49:09.669Z,99.67
2019-01-03T23:51:57.590Z,99.44
2019-01-03T23:54:40.298Z,99.29
2019-01-03T23:57:29.101Z,100.00
